Torino / Aeritalia Airpor, Italy

5:45 PM CEST on August 19, 2017 (GMT +0200)
Corso Francia | | Change Station

Elev 898 ft 45.07 °N, 7.62 °E | Updated 14 minutes ago

Partly Cloudy
Partly Cloudy
88.3 °F
Feels Like 90 °F
N
0.6
Wind Variable Wind from NW
Gusts 1.9 mph

Today
High -- | Low -- °F
--% Chance of Precip.
Yesterday
High -- | Low -- °F
Precip. -- in
Pressure 29.89 in
Visibility 6.2 miles
Clouds Few 5000 ft
Heat Index 90 °F
Dew Point 65 °F
Humidity 46%
Rainfall Not available.
Snow Depth Not available.
6:35 AM 8:29 PM
Waning Crescent, 6% visible
METAR LIMF 191520Z 14004KT 080V210 9999 FEW050 29/17 Q1012
Pressure 29.89 in
Visibility 6.2 miles
Clouds Few 5000 ft
Heat Index 90 °F
Dew Point 65 °F
Humidity 46%
Rainfall Not available.
Snow Depth Not available.
6:35 AM 8:29 PM
Waning Crescent, 6% visible
METAR LIMF 191520Z 14004KT 080V210 9999 FEW050 29/17 Q1012

Get Severe Weather Alerts

Thanks for signing up!

Be on the lookout for a verification email in your inbox.

You'll start receiving the daily forecast at 6 AM.

×

10-Day Weather Forecast

×

Almanac

Astronomy

Aug. 19, 2017 Rise Set
Actual Time
Civil Twilight
Nautical Twilight
Astronomical Twilight
Moon
Length of Visible Light
Length of Day
Tomorrow will be .
, % of the Moon is Illuminated

Today's Extremes

Country Highs Country Lows

Community

WunderPhotos

Category 6

Welcome to Category 6. This is the collective home for Weather Underground's featured writeups by Dr. Jeff Masters (right), Bob Henson (left), Chris Burt, and other regular contributors.

Nearby

Air Quality

  Air Quality AQ Index Pollutant
Not available.

Snow Depth

Station Depth Elevation

Earthquake Activity

City Distance Mag. Time & Date
Minimum magnitude displayed is 2.5.

Coastal Water Temperatures

Place Temperature

Stations

Nearby Weather Stations

Station Location Temp. Windchill Dew Point Humidity Wind Precip. Elev Updated Type